Terminal Aerodrome Forecast
Issued by NWS

Home | Current Version | Previous Version | Text Only | Print | Product List | Glossary On
Versions: 1 2 3 4 5 6 7 8 9 10 11 12 13
000
FTUS46 KOTX 240218 AAA
TAFSFF
TAF AMD
KSFF 240218Z 2402/2424 21008KT 2SM -SN BR SCT012 OVC024
     FM240500 20006KT P6SM VCSH OVC050
     FM241100 19010KT 2SM -SHSN BR SCT007 OVC012
      TEMPO 2414/2417 3/4SM -SN
     FM241900 29007KT P6SM BKN060=

USA.gov is the U.S. government's official web portal to all federal, state and local government web resources and services.